Time,TemperatureF,DewpointF,PressureIn,WindDirection,WindDirectionDegrees,WindSpeedMPH,WindSpeedGustMPH,Humidity,HourlyPrecipIn,Conditions,Clouds,dailyrainin,SolarRadiationWatts/m^2,SoftwareType,DateUTC
2013-02-16 00:02:00,-1.0,-5.0,-100.00,West,277,7.0,11.0,84,0.00,,,0.00,0.000000,,2013-02-16 06:02:00,
2013-02-16 00:11:00,6.0,3.0,-100.00,WNW,296,9.0,14.0,88,0.00,,,0.00,0.000000,,2013-02-16 06:11:00,
2013-02-16 00:42:00,6.0,3.0,-100.00,WNW,296,9.0,14.0,88,0.00,,,0.00,0.000000,,2013-02-16 06:42:00,
2013-02-16 00:52:00,6.0,3.0,-100.00,WNW,296,9.0,14.0,88,0.00,,,0.00,0.000000,,2013-02-16 06:52:00,
2013-02-16 01:02:00,6.0,3.0,-100.00,WNW,296,9.0,14.0,88,0.00,,,0.00,0.000000,,2013-02-16 07:02:00,
2013-02-16 01:11:00,7.0,4.0,-100.00,NW,313,6.0,15.0,87,0.00,,,0.00,0.000000,,2013-02-16 07:11:00,
2013-02-16 01:32:00,7.0,4.0,-100.00,NW,313,6.0,15.0,87,0.00,,,0.00,0.000000,,2013-02-16 07:32:00,
2013-02-16 01:42:00,7.0,4.0,-100.00,NW,313,6.0,15.0,87,0.00,,,0.00,0.000000,,2013-02-16 07:42:00,
2013-02-16 01:53:00,7.0,4.0,-100.00,NW,313,6.0,15.0,87,0.00,,,0.00,0.000000,,2013-02-16 07:53:00,
2013-02-16 02:01:00,7.0,4.0,-100.00,NW,313,6.0,15.0,87,0.00,,,0.00,0.000000,,2013-02-16 08:01:00,
2013-02-16 02:11:00,8.0,5.0,-100.00,NNW,329,8.0,10.0,87,0.00,,,0.00,0.000000,,2013-02-16 08:11:00,
2013-02-16 02:32:00,8.0,5.0,-100.00,NNW,329,8.0,10.0,87,0.00,,,0.00,0.000000,,2013-02-16 08:32:00,
2013-02-16 02:42:00,8.0,5.0,-100.00,NNW,329,8.0,10.0,87,0.00,,,0.00,0.000000,,2013-02-16 08:42:00,
2013-02-16 02:52:00,8.0,5.0,-100.00,NNW,329,8.0,10.0,87,0.00,,,0.00,0.000000,,2013-02-16 08:52:00,
2013-02-16 03:01:00,8.0,5.0,-100.00,NNW,329,8.0,10.0,87,0.00,,,0.00,0.000000,,2013-02-16 09:01:00,
2013-02-16 03:11:00,8.0,5.0,-100.00,NW,306,5.0,9.0,87,0.00,,,0.00,0.000000,,2013-02-16 09:11:00,
2013-02-16 03:42:00,8.0,5.0,-100.00,NW,306,5.0,9.0,87,0.00,,,0.00,0.000000,,2013-02-16 09:42:00,
2013-02-16 03:52:00,8.0,5.0,-100.00,NW,306,5.0,9.0,87,0.00,,,0.00,0.000000,,2013-02-16 09:52:00,
2013-02-16 04:01:00,8.0,5.0,-100.00,NW,306,5.0,9.0,87,0.00,,,0.00,0.000000,,2013-02-16 10:01:00,
2013-02-16 04:11:00,8.0,5.0,-100.00,WNW,288,6.0,9.0,86,0.00,,,0.00,0.000000,,2013-02-16 10:11:00,
2013-02-16 04:42:00,8.0,5.0,-100.00,WNW,288,6.0,9.0,86,0.00,,,0.00,0.000000,,2013-02-16 10:42:00,
2013-02-16 04:52:00,8.0,5.0,-100.00,WNW,288,6.0,9.0,86,0.00,,,0.00,0.000000,,2013-02-16 10:52:00,
2013-02-16 05:02:00,8.0,5.0,-100.00,WNW,288,6.0,9.0,86,0.00,,,0.00,0.000000,,2013-02-16 11:02:00,
2013-02-16 05:11:00,7.0,4.0,-100.00,WNW,291,4.0,9.0,86,0.00,,,0.00,0.000000,,2013-02-16 11:11:00,
2013-02-16 05:32:00,7.0,4.0,-100.00,WNW,291,4.0,9.0,86,0.00,,,0.00,0.000000,,2013-02-16 11:32:00,
2013-02-16 05:42:00,7.0,4.0,-100.00,WNW,291,4.0,9.0,86,0.00,,,0.00,0.000000,,2013-02-16 11:42:00,
2013-02-16 05:52:00,7.0,4.0,-100.00,WNW,291,4.0,9.0,86,0.00,,,0.00,0.000000,,2013-02-16 11:52:00,
2013-02-16 06:01:00,7.0,4.0,-100.00,WNW,291,4.0,9.0,86,0.00,,,0.00,0.000000,,2013-02-16 12:01:00,
2013-02-16 06:11:00,7.0,4.0,-100.00,SSE,161,0.0,6.0,86,0.00,,,0.00,0.000000,,2013-02-16 12:11:00,
2013-02-16 06:32:00,7.0,4.0,-100.00,SSE,161,0.0,6.0,86,0.00,,,0.00,0.000000,,2013-02-16 12:32:00,
2013-02-16 06:42:00,7.0,4.0,-100.00,SSE,161,0.0,6.0,86,0.00,,,0.00,0.000000,,2013-02-16 12:42:00,
2013-02-16 06:52:00,7.0,4.0,-100.00,SSE,161,0.0,6.0,86,0.00,,,0.00,0.000000,,2013-02-16 12:52:00,
2013-02-16 07:02:00,7.0,4.0,-100.00,SSE,161,0.0,6.0,86,0.00,,,0.00,0.000000,,2013-02-16 13:02:00,
2013-02-16 08:11:00,7.0,3.0,-100.00,WNW,285,2.0,5.0,85,-99.99,,,-99.99,26.000000,,2013-02-16 14:11:00,
2013-02-16 08:42:00,7.0,3.0,-100.00,WNW,285,2.0,5.0,85,-99.99,,,-99.99,26.000000,,2013-02-16 14:42:00,
2013-02-16 08:52:00,7.0,3.0,-100.00,WNW,285,2.0,5.0,85,-99.99,,,-99.99,26.000000,,2013-02-16 14:52:00,
2013-02-16 09:01:00,7.0,3.0,-100.00,WNW,285,2.0,5.0,85,-99.99,,,-99.99,26.000000,,2013-02-16 15:01:00,
2013-02-16 09:11:00,9.0,5.0,-100.00,SE,124,3.0,5.0,83,0.00,,,0.00,152.000000,,2013-02-16 15:11:00,
2013-02-16 09:42:00,9.0,5.0,-100.00,SE,124,3.0,5.0,83,0.00,,,0.00,152.000000,,2013-02-16 15:42:00,
2013-02-16 09:52:00,9.0,5.0,-100.00,SE,124,3.0,5.0,83,0.00,,,0.00,152.000000,,2013-02-16 15:52:00,
2013-02-16 10:01:00,9.0,5.0,-100.00,SE,124,3.0,5.0,83,0.00,,,0.00,152.000000,,2013-02-16 16:01:00,
2013-02-16 10:11:00,11.0,5.0,-100.00,ESE,109,5.0,6.0,75,0.00,,,0.00,333.000000,,2013-02-16 16:11:00,
2013-02-16 10:32:00,11.0,5.0,-100.00,ESE,109,5.0,6.0,75,0.00,,,0.00,333.000000,,2013-02-16 16:32:00,
2013-02-16 10:42:00,11.0,5.0,-100.00,ESE,109,5.0,6.0,75,0.00,,,0.00,333.000000,,2013-02-16 16:42:00,
2013-02-16 10:52:00,11.0,5.0,-100.00,ESE,109,5.0,6.0,75,0.00,,,0.00,333.000000,,2013-02-16 16:52:00,
2013-02-16 11:01:00,11.0,5.0,-100.00,ESE,109,5.0,6.0,75,0.00,,,0.00,333.000000,,2013-02-16 17:01:00,
2013-02-16 11:11:00,12.0,4.0,-100.00,ESE,108,7.0,9.0,69,0.00,,,0.00,566.000000,,2013-02-16 17:11:00,
2013-02-16 11:42:00,12.0,4.0,-100.00,ESE,108,7.0,9.0,69,0.00,,,0.00,566.000000,,2013-02-16 17:42:00,
2013-02-16 11:52:00,12.0,4.0,-100.00,ESE,108,7.0,9.0,69,0.00,,,0.00,566.000000,,2013-02-16 17:52:00,
2013-02-16 12:02:00,12.0,4.0,-100.00,ESE,108,7.0,9.0,69,0.00,,,0.00,566.000000,,2013-02-16 18:02:00,
2013-02-16 12:11:00,14.0,4.0,-100.00,East,96,6.0,9.0,65,0.00,,,0.00,635.000000,,2013-02-16 18:11:00,
2013-02-16 12:33:00,14.0,4.0,-100.00,East,96,6.0,9.0,65,0.00,,,0.00,635.000000,,2013-02-16 18:33:00,
2013-02-16 12:42:00,14.0,4.0,-100.00,East,96,6.0,9.0,65,0.00,,,0.00,635.000000,,2013-02-16 18:42:00,
2013-02-16 12:52:00,14.0,4.0,-100.00,East,96,6.0,9.0,65,0.00,,,0.00,635.000000,,2013-02-16 18:52:00,
2013-02-16 13:02:00,14.0,4.0,-100.00,East,96,6.0,9.0,65,0.00,,,0.00,635.000000,,2013-02-16 19:02:00,
2013-02-16 13:11:00,15.0,5.0,-100.00,SE,125,7.0,10.0,64,0.00,,,0.00,642.000000,,2013-02-16 19:11:00,
2013-02-16 13:42:00,15.0,5.0,-100.00,SE,125,7.0,10.0,64,0.00,,,0.00,642.000000,,2013-02-16 19:42:00,
2013-02-16 13:52:00,15.0,5.0,-100.00,SE,125,7.0,10.0,64,0.00,,,0.00,642.000000,,2013-02-16 19:52:00,
2013-02-16 14:01:00,15.0,5.0,-100.00,SE,125,7.0,10.0,64,0.00,,,0.00,642.000000,,2013-02-16 20:01:00,
2013-02-16 14:11:00,15.0,5.0,-100.00,ESE,110,7.0,11.0,64,0.00,,,0.00,586.000000,,2013-02-16 20:11:00,
2013-02-16 14:42:00,15.0,5.0,-100.00,ESE,110,7.0,11.0,64,0.00,,,0.00,586.000000,,2013-02-16 20:42:00,
2013-02-16 14:52:00,15.0,5.0,-100.00,ESE,110,7.0,11.0,64,0.00,,,0.00,586.000000,,2013-02-16 20:52:00,
2013-02-16 15:02:00,15.0,5.0,-100.00,ESE,110,7.0,11.0,64,0.00,,,0.00,586.000000,,2013-02-16 21:02:00,
2013-02-16 15:11:00,15.0,5.0,-100.00,ESE,107,7.0,9.0,64,0.00,,,0.00,473.000000,,2013-02-16 21:11:00,
2013-02-16 15:42:00,15.0,5.0,-100.00,ESE,107,7.0,9.0,64,0.00,,,0.00,473.000000,,2013-02-16 21:42:00,
2013-02-16 15:52:00,15.0,5.0,-100.00,ESE,107,7.0,9.0,64,0.00,,,0.00,473.000000,,2013-02-16 21:52:00,
2013-02-16 16:01:00,15.0,5.0,-100.00,ESE,107,7.0,9.0,64,0.00,,,0.00,473.000000,,2013-02-16 22:01:00,
2013-02-16 16:11:00,15.0,5.0,-100.00,ESE,123,6.0,9.0,65,0.00,,,0.00,316.000000,,2013-02-16 22:11:00,
2013-02-16 16:32:00,15.0,5.0,-100.00,ESE,123,6.0,9.0,65,0.00,,,0.00,316.000000,,2013-02-16 22:32:00,
2013-02-16 16:42:00,15.0,5.0,-100.00,ESE,123,6.0,9.0,65,0.00,,,0.00,316.000000,,2013-02-16 22:42:00,
2013-02-16 16:52:00,15.0,5.0,-100.00,ESE,123,6.0,9.0,65,0.00,,,0.00,316.000000,,2013-02-16 22:52:00,
2013-02-16 17:02:00,15.0,5.0,-100.00,ESE,123,6.0,9.0,65,0.00,,,0.00,316.000000,,2013-02-16 23:02:00,
2013-02-16 17:11:00,8.0,2.0,-100.00,ESE,107,4.0,7.0,76,0.00,,,0.00,72.000000,,2013-02-16 23:11:00,
2013-02-16 17:32:00,8.0,2.0,-100.00,ESE,107,4.0,7.0,76,0.00,,,0.00,72.000000,,2013-02-16 23:32:00,
2013-02-16 17:42:00,8.0,2.0,-100.00,ESE,107,4.0,7.0,76,0.00,,,0.00,72.000000,,2013-02-16 23:42:00,
2013-02-16 17:52:00,8.0,2.0,-100.00,ESE,107,4.0,7.0,76,0.00,,,0.00,72.000000,,2013-02-16 23:52:00,
2013-02-16 18:02:00,8.0,2.0,-100.00,ESE,107,4.0,7.0,76,0.00,,,0.00,72.000000,,2013-02-17 00:02:00,
2013-02-16 18:11:00,9.0,3.0,-100.00,East,99,5.0,6.0,77,0.00,,,0.00,11.000000,,2013-02-17 00:11:00,
2013-02-16 18:32:00,9.0,3.0,-100.00,East,99,5.0,6.0,77,0.00,,,0.00,11.000000,,2013-02-17 00:32:00,
2013-02-16 18:42:00,9.0,3.0,-100.00,East,99,5.0,6.0,77,0.00,,,0.00,11.000000,,2013-02-17 00:42:00,
2013-02-16 18:52:00,9.0,3.0,-100.00,East,99,5.0,6.0,77,0.00,,,0.00,11.000000,,2013-02-17 00:52:00,
2013-02-16 19:01:00,9.0,3.0,-100.00,East,99,5.0,6.0,77,0.00,,,0.00,11.000000,,2013-02-17 01:01:00,
2013-02-16 20:11:00,11.0,5.0,-100.00,ESE,112,6.0,9.0,76,-99.99,,,0.00,0.000000,,2013-02-17 02:11:00,
2013-02-16 20:42:00,11.0,5.0,-100.00,ESE,112,6.0,9.0,76,-99.99,,,0.00,0.000000,,2013-02-17 02:42:00,
2013-02-16 20:52:00,11.0,5.0,-100.00,ESE,112,6.0,9.0,76,-99.99,,,0.00,0.000000,,2013-02-17 02:52:00,
2013-02-16 21:02:00,11.0,5.0,-100.00,ESE,112,6.0,9.0,76,-99.99,,,0.00,0.000000,,2013-02-17 03:02:00,
2013-02-16 21:11:00,12.0,6.0,-100.00,ESE,117,4.0,8.0,77,0.00,,,0.00,0.000000,,2013-02-17 03:11:00,
2013-02-16 21:32:00,12.0,6.0,-100.00,ESE,117,4.0,8.0,77,0.00,,,0.00,0.000000,,2013-02-17 03:32:00,
2013-02-16 21:42:00,12.0,6.0,-100.00,ESE,117,4.0,8.0,77,0.00,,,0.00,0.000000,,2013-02-17 03:42:00,
2013-02-16 21:52:00,12.0,6.0,-100.00,ESE,117,4.0,8.0,77,0.00,,,0.00,0.000000,,2013-02-17 03:52:00,
2013-02-16 22:01:00,12.0,6.0,-100.00,ESE,117,4.0,8.0,77,0.00,,,0.00,0.000000,,2013-02-17 04:01:00,
2013-02-16 22:11:00,12.0,6.0,-100.00,ESE,102,6.0,9.0,77,0.00,,,-99.99,0.000000,,2013-02-17 04:11:00,
2013-02-16 22:42:00,12.0,6.0,-100.00,ESE,102,6.0,9.0,77,0.00,,,-99.99,0.000000,,2013-02-17 04:42:00,
2013-02-16 22:52:00,12.0,6.0,-100.00,ESE,102,6.0,9.0,77,0.00,,,-99.99,0.000000,,2013-02-17 04:52:00,
2013-02-16 23:02:00,12.0,6.0,-100.00,ESE,102,6.0,9.0,77,0.00,,,-99.99,0.000000,,2013-02-17 05:02:00,
2013-02-16 23:11:00,9.0,3.0,-100.00,East,98,8.0,10.0,77,0.00,,,0.00,0.000000,,2013-02-17 05:11:00,
2013-02-16 23:42:00,9.0,3.0,-100.00,East,98,8.0,10.0,77,0.00,,,0.00,0.000000,,2013-02-17 05:42:00,
2013-02-16 23:52:00,9.0,3.0,-100.00,East,98,8.0,10.0,77,0.00,,,0.00,0.000000,,2013-02-17 05:52:00,